Time;durP1;ratioP1;P1;durP2;ratioP2;P2;SDS_P1;SDS_P2;PMS_P1;PMS_P2;Temp;Humidity;BMP_temperature;BMP_pressure;BME280_temperature;BME280_humidity;BME280_pressure;Samples;Min_cycle;Max_cycle;Signal;HPM_P1;HPM_P2
2022/03/05 00:00:49;;;;;;;38.58;20.67;;;;;;;2.40;57.91;100710.13;5030472;28;20029;-68
2022/03/05 00:03:15;;;;;;;40.85;19.25;;;;;;;2.36;58.56;100722.63;5030506;28;20052;-68
2022/03/05 00:05:41;;;;;;;38.83;19.75;;;;;;;2.34;58.70;100721.88;5030316;28;20060;-67
2022/03/05 00:08:07;;;;;;;42.97;19.92;;;;;;;2.28;59.01;100719.50;5030047;28;20492;-67
2022/03/05 00:10:33;;;;;;;37.38;19.52;;;;;;;2.24;58.66;100717.09;5028925;28;20078;-66
2022/03/05 00:12:59;;;;;;;34.33;18.95;;;;;;;2.12;58.56;100710.59;5034847;28;20160;-68
2022/03/05 00:15:25;;;;;;;35.03;19.02;;;;;;;2.13;58.72;100714.09;5036335;28;20470;-68
2022/03/05 00:17:52;;;;;;;34.63;18.02;;;;;;;2.00;58.95;100708.50;5040895;28;20017;-71
2022/03/05 00:20:21;;;;;;;38.88;19.52;;;;;;;1.98;58.74;100722.75;5044819;28;20381;-70
2022/03/05 00:22:47;;;;;;;36.40;19.17;;;;;;;1.90;59.02;100722.22;5050601;28;20025;-71
2022/03/05 00:25:13;;;;;;;37.88;19.10;;;;;;;1.80;59.30;100715.66;5042434;28;20429;-70
2022/03/05 00:27:39;;;;;;;39.67;19.55;;;;;;;1.75;59.29;100717.66;5047708;28;20043;-71
2022/03/05 00:30:05;;;;;;;41.17;19.23;;;;;;;1.65;59.66;100711.91;5043846;28;20027;-71
2022/03/05 00:32:31;;;;;;;37.00;19.95;;;;;;;1.63;60.16;100713.78;5043987;28;20040;-72
2022/03/05 00:34:58;;;;;;;36.78;19.45;;;;;;;1.54;60.30;100708.91;5045415;28;20051;-71
2022/03/05 00:37:23;;;;;;;39.03;19.58;;;;;;;1.47;60.64;100702.19;5041777;28;20033;-71
2022/03/05 00:39:49;;;;;;;37.90;19.33;;;;;;;1.40;60.42;100711.31;5038661;28;20190;-72
2022/03/05 00:42:14;;;;;;;38.95;19.73;;;;;;;1.25;61.13;100701.41;5047568;28;20540;-71
2022/03/05 00:44:40;;;;;;;37.42;19.92;;;;;;;1.29;61.61;100712.72;5040092;28;20025;-71
2022/03/05 00:47:06;;;;;;;44.60;21.40;;;;;;;1.22;61.83;100712.09;5043888;28;20556;-71
2022/03/05 00:49:32;;;;;;;36.90;21.42;;;;;;;1.16;62.21;100715.00;5041037;28;20029;-71
2022/03/05 00:51:57;;;;;;;47.85;22.27;;;;;;;1.12;62.64;100710.78;5039941;28;20511;-71
2022/03/05 00:54:23;;;;;;;40.97;21.50;;;;;;;1.08;62.87;100711.00;5036721;28;20021;-71
2022/03/05 00:56:48;;;;;;;47.45;23.15;;;;;;;1.09;63.21;100721.50;5040227;28;20025;-71
2022/03/05 00:59:13;;;;;;;43.55;23.80;;;;;;;1.04;63.28;100712.91;5034486;28;20017;-71
2022/03/05 01:01:40;;;;;;;39.33;21.38;;;;;;;1.10;63.48;100711.78;5036652;28;20037;-70
2022/03/05 01:04:05;;;;;;;45.95;22.17;;;;;;;1.10;63.49;100712.63;5041830;28;20021;-70
2022/03/05 01:06:31;;;;;;;42.88;23.08;;;;;;;1.06;64.09;100711.06;5043093;28;20094;-70
2022/03/05 01:08:58;;;;;;;42.60;21.80;;;;;;;0.98;63.48;100694.69;5038816;28;20047;-71
2022/03/05 01:11:23;;;;;;;44.20;22.63;;;;;;;1.03;63.72;100700.63;5040372;28;20119;-70
2022/03/05 01:13:49;;;;;;;41.33;21.58;;;;;;;1.02;63.38;100709.47;5041469;28;20053;-70
2022/03/05 01:16:14;;;;;;;40.30;21.90;;;;;;;1.01;63.66;100697.22;5042949;28;20051;-70
2022/03/05 01:18:40;;;;;;;42.83;21.80;;;;;;;1.02;63.57;100704.19;5037176;28;20029;-70
2022/03/05 01:21:06;;;;;;;46.20;23.10;;;;;;;0.94;63.37;100695.75;5041313;28;20033;-70
2022/03/05 01:23:31;;;;;;;44.53;22.65;;;;;;;0.97;63.90;100700.88;5041400;28;20064;-70
2022/03/05 01:25:57;;;;;;;46.70;23.33;;;;;;;0.95;63.64;100705.38;5040981;28;20026;-70
2022/03/05 01:28:22;;;;;;;46.75;22.58;;;;;;;0.86;63.75;100692.56;5041364;28;20481;-71
2022/03/05 01:30:48;;;;;;;46.83;24.20;;;;;;;0.89;63.82;100705.63;5043586;28;20025;-72
2022/03/05 01:33:15;;;;;;;48.58;25.48;;;;;;;0.88;63.82;100696.00;5039545;28;20167;-70
2022/03/05 01:35:44;;;;;;;49.08;24.35;;;;;;;0.83;64.04;100689.19;5040858;28;20049;-70
2022/03/05 01:38:11;;;;;;;49.53;24.35;;;;;;;0.79;64.02;100685.84;5040848;28;20057;-70
2022/03/05 01:40:36;;;;;;;47.58;25.25;;;;;;;0.76;64.36;100693.88;5036584;28;20701;-71
2022/03/05 01:43:02;;;;;;;49.85;24.13;;;;;;;0.79;64.31;100695.53;5039334;28;20124;-71
2022/03/05 01:45:28;;;;;;;52.97;25.00;;;;;;;0.83;64.12;100690.06;5040647;28;20037;-71
2022/03/05 01:47:53;;;;;;;55.05;26.83;;;;;;;0.75;64.39;100683.38;5040558;28;20512;-71
2022/03/05 01:50:19;;;;;;;54.47;27.05;;;;;;;0.74;64.54;100689.59;5039414;28;20025;-71
2022/03/05 01:52:44;;;;;;;57.33;27.65;;;;;;;0.61;64.86;100683.94;5035990;28;20036;-71
2022/03/05 01:55:12;;;;;;;51.00;26.35;;;;;;;0.58;65.15;100697.28;5043401;28;20028;-70
2022/03/05 01:57:37;;;;;;;53.00;24.95;;;;;;;0.57;64.74;100699.97;5043916;28;20037;-71
2022/03/05 02:00:05;;;;;;;56.70;26.08;;;;;;;0.46;65.19;100694.28;5043422;28;20038;-71
2022/03/05 02:02:30;;;;;;;53.75;26.08;;;;;;;0.46;65.23;100694.28;5040771;28;20033;-71
2022/03/05 02:04:57;;;;;;;50.65;25.67;;;;;;;0.39;65.78;100693.69;5046297;28;20029;-71
2022/03/05 02:07:22;;;;;;;50.40;24.90;;;;;;;0.39;66.11;100709.53;5047237;28;20039;-71
2022/03/05 02:09:48;;;;;;;49.80;26.08;;;;;;;0.30;66.26;100695.81;5043944;28;21267;-71
2022/03/05 02:12:13;;;;;;;52.53;24.20;;;;;;;0.26;66.06;100694.25;5044772;28;20037;-71
2022/03/05 02:14:38;;;;;;;48.45;24.08;;;;;;;0.20;65.98;100697.97;5046324;28;20021;-71
2022/03/05 02:17:04;;;;;;;48.17;25.58;;;;;;;0.18;65.84;100697.19;5040348;28;20492;-71
2022/03/05 02:19:30;;;;;;;46.15;24.15;;;;;;;0.10;66.39;100701.91;5049321;28;20079;-71
2022/03/05 02:21:56;;;;;;;52.03;24.45;;;;;;;0.05;66.23;100701.22;5043106;28;20057;-71
2022/03/05 02:24:34;;;;;;;51.33;25.08;;;;;;;0.00;66.47;100700.56;5044138;28;20544;-72
2022/03/05 02:27:02;;;;;;;48.15;23.13;;;;;;;-0.06;66.26;100712.16;5041778;28;20037;-71
2022/03/05 02:29:28;;;;;;;46.45;23.95;;;;;;;-0.13;66.53;100702.78;5036319;28;20029;-71
2022/03/05 02:31:54;;;;;;;45.42;21.83;;;;;;;-0.11;66.92;100708.88;5042476;28;20016;-71
2022/03/05 02:34:20;;;;;;;44.72;22.05;;;;;;;-0.14;67.14;100705.47;5041428;28;20041;-73
2022/03/05 02:36:46;;;;;;;40.40;20.23;;;;;;;-0.09;67.16;100716.72;5039405;28;20569;-70
2022/03/05 02:39:11;;;;;;;40.03;21.05;;;;;;;-0.18;67.46;100707.38;5035321;28;20049;-70
2022/03/05 02:41:37;;;;;;;46.75;21.48;;;;;;;-0.20;67.02;100717.13;5039353;28;20022;-71
2022/03/05 02:44:03;;;;;;;45.30;22.17;;;;;;;-0.27;66.99;100706.84;5044240;28;20045;-71
2022/03/05 02:46:29;;;;;;;46.55;21.95;;;;;;;-0.29;67.14;100712.19;5044473;28;20029;-71
2022/03/05 02:48:56;;;;;;;46.17;22.38;;;;;;;-0.33;67.57;100712.34;5037090;28;20408;-71
2022/03/05 02:51:21;;;;;;;39.17;20.42;;;;;;;-0.38;67.76;100709.03;5041018;28;20025;-71
2022/03/05 02:53:47;;;;;;;45.13;22.00;;;;;;;-0.48;67.41;100692.69;5038601;28;20048;-71
2022/03/05 02:56:12;;;;;;;42.25;20.58;;;;;;;-0.47;67.98;100702.34;5044101;28;20102;-71
2022/03/05 02:58:38;;;;;;;46.65;21.77;;;;;;;-0.47;67.56;100714.66;5044288;28;20078;-72
2022/03/05 03:01:03;;;;;;;42.88;21.30;;;;;;;-0.55;68.17;100707.03;5039252;28;20072;-70
2022/03/05 03:03:29;;;;;;;47.00;23.17;;;;;;;-0.60;67.98;100706.34;5040285;28;20037;-70
2022/03/05 03:05:55;;;;;;;51.72;22.33;;;;;;;-0.63;67.93;100705.59;5045157;28;20033;-71
2022/03/05 03:08:20;;;;;;;41.40;20.45;;;;;;;-0.72;68.12;100701.50;5042755;28;20025;-71
2022/03/05 03:10:46;;;;;;;42.78;21.08;;;;;;;-0.72;68.21;100701.50;5039611;28;20136;-70
2022/03/05 03:13:11;;;;;;;41.03;20.35;;;;;;;-0.72;67.93;100708.53;5044852;28;20029;-71
2022/03/05 03:15:37;;;;;;;49.05;21.70;;;;;;;-0.76;68.10;100714.84;5043110;28;20660;-70
2022/03/05 03:18:02;;;;;;;40.97;20.42;;;;;;;-0.91;68.30;100686.41;5045173;28;20539;-71
2022/03/05 03:20:28;;;;;;;43.35;19.95;;;;;;;-0.84;68.25;100709.84;5038365;28;20049;-71
2022/03/05 03:22:54;;;;;;;38.47;20.25;;;;;;;-0.85;68.42;100715.16;5041324;28;20029;-70
2022/03/05 03:25:20;;;;;;;40.75;20.35;;;;;;;-0.91;68.47;100718.00;5043185;28;20396;-70
2022/03/05 03:27:46;;;;;;;39.05;21.33;;;;;;;-0.98;68.39;100705.97;5048508;28;21051;-70
2022/03/05 03:30:13;;;;;;;40.17;21.77;;;;;;;-1.03;68.03;100711.38;5042557;28;20020;-70
2022/03/05 03:32:39;;;;;;;40.97;20.02;;;;;;;-1.04;68.49;100719.34;5048393;28;20029;-70
2022/03/05 03:35:07;;;;;;;43.97;21.17;;;;;;;-1.13;68.69;100709.16;5043957;28;20030;-71
2022/03/05 03:37:33;;;;;;;46.47;22.30;;;;;;;-1.15;69.19;100718.84;5046631;28;20174;-70
2022/03/05 03:40:00;;;;;;;44.08;21.20;;;;;;;-1.18;69.19;100717.19;5036859;28;20029;-71
2022/03/05 03:42:27;;;;;;;46.72;20.70;;;;;;;-1.24;69.04;100719.16;5037521;28;20052;-70
2022/03/05 03:44:53;;;;;;;43.45;21.52;;;;;;;-1.25;68.85;100718.31;5038628;28;20025;-70
2022/03/05 03:47:20;;;;;;;45.85;21.33;;;;;;;-1.28;69.09;100728.06;5043832;28;20045;-70
2022/03/05 03:49:46;;;;;;;43.45;21.50;;;;;;;-1.32;69.19;100710.69;5044065;28;20025;-70
2022/03/05 03:52:13;;;;;;;51.30;23.45;;;;;;;-1.31;69.81;100720.28;5033150;28;20405;-70
2022/03/05 03:54:40;;;;;;;50.53;24.73;;;;;;;-1.39;70.19;100712.63;5043227;28;20024;-71
2022/03/05 03:57:06;;;;;;;47.35;23.27;;;;;;;-1.35;70.38;100719.50;5040251;28;20041;-71
2022/03/05 03:59:31;;;;;;;52.08;23.73;;;;;;;-1.35;70.51;100721.31;5041099;28;20389;-69
2022/03/05 04:01:57;;;;;;;55.53;25.35;;;;;;;-1.36;71.15;100720.44;5044892;28;20032;-69
2022/03/05 04:04:22;;;;;;;50.15;24.42;;;;;;;-1.35;71.32;100719.50;5034494;28;20029;-69
2022/03/05 04:09:31;;;;;;;49.83;22.65;;;;;;;-1.30;72.35;100720.22;5051366;28;20492;-71
2022/03/05 04:11:57;;;;;;;49.70;22.80;;;;;;;-1.21;72.34;100733.09;5042397;28;20037;-66
2022/03/05 04:14:22;;;;;;;47.05;22.83;;;;;;;-1.23;72.75;100711.22;5050010;28;20029;-66
2022/03/05 04:16:48;;;;;;;47.78;24.27;;;;;;;-1.23;72.76;100719.09;5044810;28;20024;-66
2022/03/05 04:19:13;;;;;;;47.30;22.55;;;;;;;-1.15;73.00;100721.50;5030086;28;20036;-66
2022/03/05 04:21:39;;;;;;;47.75;22.95;;;;;;;-1.10;73.09;100722.22;5030440;28;20042;-66
2022/03/05 04:24:05;;;;;;;44.30;21.95;;;;;;;-1.07;73.71;100722.06;5050349;28;20047;-67
2022/03/05 04:26:30;;;;;;;48.72;23.55;;;;;;;-0.99;73.60;100722.69;5048717;28;20040;-67
2022/03/05 04:28:55;;;;;;;49.50;24.10;;;;;;;-0.93;73.59;100733.00;5049042;28;20037;-71
2022/03/05 04:31:21;;;;;;;56.22;25.90;;;;;;;-0.91;73.44;100725.91;5049187;28;20059;-70
2022/03/05 04:33:46;;;;;;;55.83;25.60;;;;;;;-0.93;73.39;100718.06;5046798;28;20503;-70
2022/03/05 04:36:12;;;;;;;56.47;26.33;;;;;;;-0.80;73.21;100737.78;5049190;28;20037;-70
2022/03/05 04:38:37;;;;;;;60.53;26.60;;;;;;;-0.75;73.28;100748.16;5037386;28;20421;-70
2022/03/05 04:41:03;;;;;;;63.55;28.02;;;;;;;-0.73;73.32;100734.03;5036204;28;20022;-70
2022/03/05 04:43:29;;;;;;;63.20;28.30;;;;;;;-0.72;73.37;100734.88;5031150;28;20048;-70
2022/03/05 04:45:54;;;;;;;61.67;28.73;;;;;;;-0.62;73.28;100747.66;5040478;28;20111;-70
2022/03/05 04:48:19;;;;;;;55.92;27.00;;;;;;;-0.64;73.45;100731.03;5042033;28;20079;-70
2022/03/05 04:50:48;;;;;;;61.00;25.88;;;;;;;-0.57;73.54;100742.25;5045072;28;20029;-70
2022/03/05 04:53:14;;;;;;;55.22;24.45;;;;;;;-0.52;73.59;100741.16;5044095;28;20016;-70
2022/03/05 04:55:39;;;;;;;50.70;23.08;;;;;;;-0.48;73.32;100737.47;5048673;28;20540;-69
2022/03/05 04:58:05;;;;;;;56.40;25.10;;;;;;;-0.46;73.20;100734.78;5047902;28;20021;-71
2022/03/05 05:00:30;;;;;;;48.80;24.25;;;;;;;-0.39;73.26;100744.19;5033123;28;20021;-67
2022/03/05 05:02:56;;;;;;;49.58;24.50;;;;;;;-0.36;73.46;100736.19;5033128;28;20602;-67
2022/03/05 05:05:21;;;;;;;52.47;25.33;;;;;;;-0.31;73.11;100736.88;5049168;28;20047;-67
2022/03/05 05:07:47;;;;;;;47.72;24.52;;;;;;;-0.34;73.37;100729.09;5048006;28;20156;-68
2022/03/05 05:10:12;;;;;;;48.90;23.52;;;;;;;-0.32;73.26;100727.25;5032115;28;20033;-68
2022/03/05 05:12:38;;;;;;;50.85;24.70;;;;;;;-0.30;73.43;100728.91;5029496;28;20026;-68
2022/03/05 05:15:04;;;;;;;56.65;25.55;;;;;;;-0.29;73.78;100728.00;5029623;28;20066;-67
2022/03/05 05:17:39;;;;;;;57.67;26.30;;;;;;;-0.16;73.64;100750.34;5029366;28;20120;-68
2022/03/05 05:20:05;;;;;;;56.83;24.75;;;;;;;-0.10;73.07;100738.69;5032587;28;20032;-68
2022/03/05 05:22:32;;;;;;;52.40;26.38;;;;;;;-0.05;72.82;100740.25;5047935;28;20102;-66
2022/03/05 05:24:59;;;;;;;57.45;27.02;;;;;;;-0.02;72.99;100748.06;5040576;28;20025;-67
2022/03/05 05:27:25;;;;;;;59.58;28.95;;;;;;;0.02;73.08;100754.06;5029445;28;20057;-67
2022/03/05 05:29:50;;;;;;;55.45;25.98;;;;;;;0.05;72.98;100759.22;5047673;28;20056;-67
2022/03/05 05:32:16;;;;;;;58.72;29.10;;;;;;;0.12;72.84;100757.22;5048910;28;20083;-66
2022/03/05 05:34:42;;;;;;;59.60;27.48;;;;;;;0.08;72.85;100752.97;5037662;28;20117;-68
2022/03/05 05:37:08;;;;;;;55.13;25.85;;;;;;;0.14;72.41;100765.91;5029419;28;20033;-67
2022/03/05 05:39:33;;;;;;;58.75;26.90;;;;;;;0.34;72.42;100761.59;5030392;28;20556;-66
2022/03/05 05:41:59;;;;;;;54.75;27.20;;;;;;;0.27;72.66;100770.66;5030083;28;20060;-66
2022/03/05 05:44:25;;;;;;;58.00;27.10;;;;;;;0.38;72.88;100767.63;5032569;28;20029;-67
2022/03/05 05:46:50;;;;;;;58.25;27.60;;;;;;;0.39;72.81;100769.31;5049366;28;20021;-67
2022/03/05 05:49:16;;;;;;;54.10;27.50;;;;;;;0.44;72.91;100768.22;5041566;28;20078;-65
2022/03/05 05:51:41;;;;;;;54.75;27.67;;;;;;;0.47;73.32;100764.59;5048932;28;20493;-66
2022/03/05 05:54:08;;;;;;;59.25;27.40;;;;;;;0.47;73.29;100760.19;5047543;28;20047;-66
2022/03/05 05:56:33;;;;;;;61.20;28.98;;;;;;;0.57;73.27;100780.00;5048559;28;20082;-66
2022/03/05 05:58:59;;;;;;;61.25;29.10;;;;;;;0.60;73.56;100779.88;5046594;28;20108;-66
2022/03/05 06:01:25;;;;;;;65.55;29.63;;;;;;;0.64;73.20;100778.84;5028556;28;20021;-66
2022/03/05 06:03:53;;;;;;;60.20;26.58;;;;;;;0.68;73.44;100785.69;5028644;28;20144;-66
2022/03/05 06:06:20;;;;;;;54.40;27.40;;;;;;;0.74;73.60;100784.63;5028466;28;20029;-67
2022/03/05 06:08:46;;;;;;;55.58;27.75;;;;;;;0.78;73.37;100780.91;5031570;28;20072;-70
2022/03/05 06:11:11;;;;;;;55.55;28.52;;;;;;;0.86;73.59;100777.03;5035588;28;20025;-69
2022/03/05 06:13:37;;;;;;;56.88;27.77;;;;;;;0.91;73.56;100780.38;5040512;28;20080;-70
2022/03/05 06:16:03;;;;;;;55.08;26.88;;;;;;;0.95;73.31;100770.53;5045208;28;20047;-70
2022/03/05 06:18:28;;;;;;;56.10;28.30;;;;;;;1.04;73.06;100778.94;5045756;28;20120;-70
2022/03/05 06:20:54;;;;;;;54.75;27.95;;;;;;;1.11;72.42;100772.47;5046415;28;20067;-71
2022/03/05 06:23:19;;;;;;;55.00;27.98;;;;;;;1.14;72.42;100776.75;5038586;28;20376;-70
2022/03/05 06:25:45;;;;;;;55.85;28.52;;;;;;;1.25;71.94;100774.50;5039791;28;20033;-70
2022/03/05 06:28:11;;;;;;;53.13;29.08;;;;;;;1.32;71.67;100774.19;5034298;28;20022;-70
2022/03/05 06:30:36;;;;;;;50.33;25.60;;;;;;;1.41;71.85;100775.56;5040767;28;20029;-70
2022/03/05 06:33:02;;;;;;;56.22;27.83;;;;;;;1.48;71.35;100777.88;5034720;28;20033;-71
2022/03/05 06:35:28;;;;;;;54.35;26.95;;;;;;;1.66;70.99;100782.38;5047093;28;20025;-70
2022/03/05 06:37:53;;;;;;;51.33;24.67;;;;;;;1.79;70.29;100783.56;5029905;28;20050;-71
2022/03/05 06:40:19;;;;;;;43.88;24.25;;;;;;;1.95;69.30;100789.00;5041773;28;20037;-70
2022/03/05 06:42:45;;;;;;;41.70;21.83;;;;;;;2.08;68.80;100784.88;5036837;28;20037;-71
2022/03/05 06:45:11;;;;;;;42.78;21.70;;;;;;;2.26;68.02;100797.25;5034125;28;20032;-71
2022/03/05 06:47:40;;;;;;;43.88;22.63;;;;;;;2.41;66.60;100793.03;5038673;28;20060;-71
2022/03/05 06:50:09;;;;;;;45.83;23.83;;;;;;;2.55;66.12;100788.81;5034192;28;20021;-71
2022/03/05 06:52:34;;;;;;;47.33;24.27;;;;;;;2.67;65.47;100787.38;5040217;28;20037;-71
2022/03/05 06:55:00;;;;;;;42.47;23.50;;;;;;;2.89;65.19;100785.38;5035085;28;20029;-71
2022/03/05 06:57:26;;;;;;;42.22;22.80;;;;;;;3.04;64.26;100785.50;5034908;28;20036;-70
2022/03/05 06:59:52;;;;;;;39.72;21.95;;;;;;;3.32;62.94;100791.09;5037527;28;20493;-71
2022/03/05 07:02:18;;;;;;;37.25;20.38;;;;;;;3.49;62.37;100787.59;5034013;28;20108;-71
2022/03/05 07:04:43;;;;;;;34.60;20.23;;;;;;;3.61;61.86;100782.50;5036066;28;20025;-70
2022/03/05 07:07:09;;;;;;;38.70;19.10;;;;;;;3.79;60.40;100784.22;5047922;28;20486;-71
2022/03/05 07:09:34;;;;;;;31.45;17.45;;;;;;;3.93;59.83;100778.16;5042250;28;20116;-70
2022/03/05 07:12:00;;;;;;;32.67;17.38;;;;;;;4.10;58.49;100783.44;5037367;28;20053;-71
2022/03/05 07:14:26;;;;;;;26.13;16.77;;;;;;;4.22;57.26;100790.72;5042289;28;20029;-70
2022/03/05 07:16:52;;;;;;;30.08;16.95;;;;;;;4.32;56.77;100787.47;5047397;28;20068;-71
2022/03/05 07:19:18;;;;;;;31.35;17.58;;;;;;;4.40;56.30;100779.09;5042788;28;20052;-71
2022/03/05 07:21:43;;;;;;;30.83;17.67;;;;;;;4.56;55.19;100777.31;5044339;28;20087;-71
2022/03/05 07:24:08;;;;;;;25.83;15.82;;;;;;;4.76;55.32;100787.66;5042765;28;20029;-70
2022/03/05 07:26:35;;;;;;;27.75;15.55;;;;;;;4.95;54.76;100780.38;5049560;28;20037;-72
2022/03/05 07:29:00;;;;;;;30.05;16.20;;;;;;;5.14;54.38;100775.69;5039310;28;20037;-72
2022/03/05 07:31:26;;;;;;;27.38;16.33;;;;;;;5.40;53.10;100790.97;5040011;28;20025;-71
2022/03/05 07:33:51;;;;;;;27.83;15.02;;;;;;;5.59;52.41;100780.97;5041472;28;20029;-71
2022/03/05 07:36:17;;;;;;;24.77;15.32;;;;;;;5.83;51.19;100784.81;5046650;28;20029;-71
2022/03/05 07:38:44;;;;;;;26.88;15.55;;;;;;;5.98;51.19;100783.03;5034070;28;20049;-71
2022/03/05 07:41:11;;;;;;;26.10;14.93;;;;;;;6.27;50.56;100787.41;5042461;28;20485;-72
2022/03/05 07:43:37;;;;;;;22.45;14.57;;;;;;;6.55;49.74;100796.19;5035971;28;20044;-72
2022/03/05 07:46:02;;;;;;;26.48;14.52;;;;;;;6.74;48.83;100770.09;5034747;28;20038;-72
2022/03/05 07:48:28;;;;;;;22.38;15.27;;;;;;;7.15;47.17;100785.19;5037648;28;20063;-72
2022/03/05 07:50:54;;;;;;;25.85;15.90;;;;;;;7.55;46.96;100789.56;5044658;28;20028;-72
2022/03/05 07:53:20;;;;;;;23.20;15.65;;;;;;;8.14;44.73;100789.81;5044345;28;20033;-72
2022/03/05 07:55:45;;;;;;;24.50;14.80;;;;;;;8.59;44.62;100781.22;5042600;28;20025;-73
2022/03/05 07:58:11;;;;;;;23.88;14.52;;;;;;;9.49;42.53;100780.72;5040841;28;20017;-73
2022/03/05 08:00:37;;;;;;;24.02;15.23;;;;;;;10.03;41.70;100787.19;5043019;28;20024;-72
2022/03/05 08:03:02;;;;;;;23.75;14.57;;;;;;;10.34;40.29;100790.03;5046271;28;20048;-71
2022/03/05 08:05:28;;;;;;;22.27;14.00;;;;;;;10.23;40.40;100781.13;5041848;28;20378;-72
2022/03/05 08:07:54;;;;;;;28.65;15.90;;;;;;;10.09;40.57;100794.78;5047486;28;20489;-67
2022/03/05 08:10:21;;;;;;;25.35;15.73;;;;;;;9.91;40.68;100789.00;5048830;28;20538;-66
2022/03/05 08:12:47;;;;;;;24.63;15.32;;;;;;;9.86;40.58;100780.44;5050162;28;20088;-68
2022/03/05 08:15:13;;;;;;;24.02;15.38;;;;;;;9.87;41.08;100783.97;5050530;28;20058;-68
2022/03/05 08:17:49;;;;;;;22.95;15.75;;;;;;;9.80;41.25;100783.59;5048261;28;20398;-72
2022/03/05 08:20:14;;;;;;;26.90;15.52;;;;;;;9.74;41.10;100792.09;5041814;28;20032;-71
2022/03/05 08:22:40;;;;;;;23.08;15.85;;;;;;;9.58;41.32;100790.72;5039076;28;20037;-72
2022/03/05 08:25:06;;;;;;;26.00;14.85;;;;;;;9.44;41.58;100786.41;5036278;28;20029;-72
2022/03/05 08:27:31;;;;;;;22.13;14.80;;;;;;;9.53;41.43;100800.91;5036573;28;20044;-68
2022/03/05 08:29:56;;;;;;;28.45;16.13;;;;;;;10.12;40.26;100795.38;5028725;28;20033;-67
2022/03/05 08:32:22;;;;;;;21.75;15.52;;;;;;;10.65;39.32;100793.81;5029492;28;20280;-68
2022/03/05 08:34:47;;;;;;;23.98;15.45;;;;;;;10.25;40.12;100792.59;5028600;28;20033;-68
2022/03/05 08:37:14;;;;;;;22.48;15.77;;;;;;;9.95;40.46;100787.78;5028354;28;20243;-68
2022/03/05 08:39:39;;;;;;;31.27;15.63;;;;;;;9.43;41.27;100799.91;5028645;28;20059;-66
2022/03/05 08:42:05;;;;;;;27.85;15.13;;;;;;;8.95;42.37;100799.06;5029619;28;20029;-67
2022/03/05 08:44:31;;;;;;;30.40;15.52;;;;;;;8.69;43.15;100794.75;5028301;28;20034;-67
2022/03/05 08:46:56;;;;;;;34.17;16.08;;;;;;;8.17;44.61;100788.72;5029471;28;20479;-69
2022/03/05 08:49:22;;;;;;;25.80;15.40;;;;;;;7.97;44.78;100805.31;5028187;28;20029;-67
2022/03/05 08:51:47;;;;;;;24.08;15.10;;;;;;;7.69;46.11;100800.13;5029764;28;20033;-67
2022/03/05 08:54:13;;;;;;;26.50;14.52;;;;;;;7.50;46.45;100805.00;5029683;28;20040;-67
2022/03/05 08:56:38;;;;;;;23.52;14.15;;;;;;;7.28;47.31;100812.78;5029642;28;20111;-67
2022/03/05 08:59:04;;;;;;;23.48;14.13;;;;;;;7.14;46.93;100810.13;5029384;28;20021;-68
2022/03/05 09:01:29;;;;;;;29.83;14.75;;;;;;;7.09;47.25;100797.09;5029439;28;20040;-68
2022/03/05 09:03:55;;;;;;;24.38;14.32;;;;;;;7.07;47.64;100784.81;5029215;28;20033;-67
2022/03/05 09:06:20;;;;;;;26.40;14.77;;;;;;;7.23;46.95;100801.53;5027804;28;20053;-67
2022/03/05 09:08:46;;;;;;;23.73;15.00;;;;;;;7.39;46.66;100792.41;5027989;28;20402;-67
2022/03/05 09:11:11;;;;;;;24.52;14.80;;;;;;;7.65;46.46;100795.97;5029259;28;20024;-66
2022/03/05 09:13:37;;;;;;;24.08;14.10;;;;;;;8.30;45.22;100785.13;5028680;28;20119;-67
2022/03/05 09:16:02;;;;;;;23.33;13.85;;;;;;;10.08;41.76;100776.97;5028001;28;20025;-67
2022/03/05 09:18:28;;;;;;;25.80;14.15;;;;;;;12.02;38.65;100784.88;5028976;28;20041;-68
2022/03/05 09:20:54;;;;;;;29.40;13.68;;;;;;;13.64;35.53;100768.19;5029199;28;20036;-68
2022/03/05 09:23:19;;;;;;;20.48;13.30;;;;;;;14.58;33.46;100757.31;5027812;28;20116;-67
2022/03/05 09:25:45;;;;;;;19.27;13.25;;;;;;;15.89;31.10;100757.47;5029082;28;20071;-66
2022/03/05 09:28:10;;;;;;;18.00;12.73;;;;;;;16.95;29.58;100755.19;5028967;28;20033;-67
2022/03/05 09:30:36;;;;;;;18.38;12.60;;;;;;;17.27;29.32;100752.53;5028861;28;20036;-68
2022/03/05 09:33:01;;;;;;;19.35;12.75;;;;;;;18.18;28.03;100737.81;5028785;28;20021;-68
2022/03/05 09:35:27;;;;;;;22.75;13.85;;;;;;;18.83;27.58;100751.03;5028682;28;20033;-68
2022/03/05 09:37:52;;;;;;;21.45;14.32;;;;;;;19.28;26.71;100723.13;5028709;28;20123;-67
2022/03/05 09:40:17;;;;;;;21.65;13.52;;;;;;;19.70;25.97;100731.63;5027400;28;20041;-66
2022/03/05 09:42:44;;;;;;;18.58;12.50;;;;;;;19.54;25.99;100726.31;5030670;28;20029;-71
2022/03/05 09:45:15;;;;;;;16.05;12.75;;;;;;;19.74;25.11;100722.06;5040897;28;20492;-72
2022/03/05 09:47:42;;;;;;;17.77;12.93;;;;;;;19.78;25.33;100726.94;5037567;28;20029;-72
2022/03/05 09:50:09;;;;;;;15.65;12.48;;;;;;;20.41;25.06;100698.41;5039581;28;20040;-72
2022/03/05 09:52:35;;;;;;;22.15;12.70;;;;;;;20.93;24.53;100708.09;5043254;28;20059;-71
2022/03/05 09:55:01;;;;;;;18.23;12.07;;;;;;;20.33;24.49;100710.25;5036382;28;20038;-71
2022/03/05 09:57:27;;;;;;;22.15;12.70;;;;;;;19.99;24.48;100708.00;5041667;28;20052;-72
2022/03/05 09:59:52;;;;;;;21.38;10.82;;;;;;;19.83;24.62;100713.63;5044661;28;20052;-71
2022/03/05 10:02:18;;;;;;;21.60;11.80;;;;;;;19.56;24.86;100718.78;5036897;28;20493;-72
2022/03/05 10:04:44;;;;;;;19.88;10.48;;;;;;;19.09;25.08;100709.94;5041743;28;20025;-71
2022/03/05 10:07:15;;;;;;;18.67;11.13;;;;;;;19.48;25.06;100714.25;5043884;28;20059;-71
2022/03/05 10:09:44;;;;;;;18.30;10.90;;;;;;;19.97;24.65;100710.09;5036928;28;20343;-72
2022/03/05 10:12:26;;;;;;;17.90;11.27;;;;;;;20.53;23.90;100719.53;5046394;28;20248;-72
2022/03/05 10:15:17;;;;;;;11.98;10.60;;;;;;;20.25;24.13;100710.34;5036350;28;20034;-72
2022/03/05 10:17:56;;;;;;;13.10;10.27;;;;;;;20.48;23.54;100707.50;5044992;28;20061;-72
2022/03/05 10:20:31;;;;;;;14.25;10.77;;;;;;;21.12;23.43;100695.78;5035745;28;20120;-71
2022/03/05 10:22:56;;;;;;;12.23;9.80;;;;;;;21.67;22.70;100688.53;5041403;28;20044;-71
2022/03/05 10:25:38;;;;;;;13.60;10.05;;;;;;;22.08;21.91;100697.72;5044537;28;20025;-71
2022/03/05 10:28:20;;;;;;;17.63;9.45;;;;;;;22.62;21.32;100697.84;5040303;28;20108;-72
2022/03/05 10:30:51;;;;;;;11.88;9.63;;;;;;;22.81;20.92;100696.25;5045209;28;20500;-72
2022/03/05 10:33:30;;;;;;;16.60;10.13;;;;;;;22.46;21.29;100689.97;5042524;28;20025;-72
2022/03/05 10:36:01;;;;;;;12.00;8.93;;;;;;;22.25;21.40;100687.34;5040284;28;20097;-71
2022/03/05 10:38:45;;;;;;;15.68;9.18;;;;;;;22.02;21.73;100694.94;5044554;28;20046;-72
2022/03/05 10:41:13;;;;;;;10.15;7.70;;;;;;;21.49;21.97;100690.91;5044160;28;20064;-71
2022/03/05 10:43:39;;;;;;;12.45;8.63;;;;;;;20.60;22.33;100698.66;5050037;28;20052;-71
2022/03/05 10:46:05;;;;;;;14.45;8.25;;;;;;;19.38;23.22;100700.06;5045597;28;20079;-72
2022/03/05 10:48:32;;;;;;;14.27;8.70;;;;;;;18.32;24.39;100704.50;5039290;28;20497;-72
2022/03/05 10:51:01;;;;;;;17.23;9.77;;;;;;;16.95;26.04;100714.53;5045716;28;20033;-72
2022/03/05 10:53:36;;;;;;;13.70;8.95;;;;;;;15.49;27.76;100714.75;5041526;28;20059;-67
2022/03/05 10:56:24;;;;;;;13.43;8.77;;;;;;;14.53;29.27;100721.81;5033513;28;20052;-72
2022/03/05 10:59:12;;;;;;;14.73;8.38;;;;;;;13.45;30.36;100716.97;5040819;28;20112;-72
2022/03/05 11:01:44;;;;;;;14.13;9.15;;;;;;;12.67;31.12;100715.34;5038861;28;20031;-71
2022/03/05 11:04:12;;;;;;;19.15;8.80;;;;;;;11.99;32.71;100716.09;5044476;28;20045;-72
2022/03/05 11:06:40;;;;;;;17.33;9.93;;;;;;;11.58;33.02;100713.44;5039188;28;20056;-72
2022/03/05 11:09:08;;;;;;;15.20;9.15;;;;;;;11.14;34.57;100722.56;5048631;28;20021;-72
2022/03/05 11:11:39;;;;;;;16.30;8.93;;;;;;;10.70;35.05;100720.00;5040154;28;20060;-71
2022/03/05 11:14:13;;;;;;;14.93;8.98;;;;;;;10.22;36.04;100705.22;5041617;28;20025;-67